หน้าหลัก
METAR-TAF:

METAR-TAF

ท่าอากาศยาน :

Rivas, นิการากัว

ละติจูด: 11-25N, ลองจิจูด: 085-50W, ความสูง: 53 ม.

การสังเกตสภาพอากาศปัจจุบัน

รายงานได้ทำขึ้นเมื่อ 49 นาทีที่แล้ว ณ เวลา 23:00 UTC
ลมสงบ
อุณหภูมิ 33°C
ความชื้น 56%
ความกดอากาศ 1008 hPa
ทัศนวิสัย: 8000 ม.
มีเมฆน้อยที่ความสูง 1500 ฟุต, คิวมูโลนิมบัส.
มีเมฆกระจายเป็นบางส่วนที่ความสูง 20000 ฟุต
ควัน,

METAR: MNRS 242300Z 00000KT 8000 FEW015CB SCT200 33/23 Q1008 CB/E/SE FU

เวลา: 17:49 (23:49 UTC)


TAF: หายไป

สังเกตการณ์สภาพอากาศและพยากรณ์อากาศของสนามบินมากกว่า 4000 แห่ง (รายงาน METAR และ TAF).

สถานีที่ดูได้จะแสดงไว้ด้วยจุดสีเหลืองและสีแดงบนแผนที่.

เลื่อนเมาส์ไปเหนือจุดเพื่อดูชื่อสถานี.

แล้วคลิกเพื่อดูสังเกตการณ์และการพยากรณ์สภาพอากาศ.

ในการเปลี่ยนแผนที่: คลิกที่ปุ่มสีเขียวที่มีกากบาทสีดำเพื่อซูมเข้า; ที่ปุ่มสีเขียวที่มีขีดเพื่อซูมออก; หรือที่ลูกศรสีเขียวเพื่อไปยังแผนที่ที่อยู่ติดกัน.


METAR-TAF: